Time;durP1;ratioP1;P1;durP2;ratioP2;P2;SDS_P1;SDS_P2;PMS_P1;PMS_P2;Temp;Humidity;BMP_temperature;BMP_pressure;BME280_temperature;BME280_humidity;BME280_pressure;Samples;Min_cycle;Max_cycle;Signal;HPM_P1;HPM_P2
2022/03/09 00:02:06;;;;;;;117.53;106.38;;;7.10;45.70;;;;;;4939620;28;20052;-78
2022/03/09 00:04:34;;;;;;;118.80;107.53;;;7.10;45.40;;;;;;4939542;28;20505;-79
2022/03/09 00:07:01;;;;;;;117.40;106.13;;;7.10;45.30;;;;;;4939870;28;20064;-78
2022/03/09 00:09:28;;;;;;;118.35;106.88;;;7.10;45.40;;;;;;4940152;28;20490;-78
2022/03/09 00:11:55;;;;;;;117.40;106.30;;;7.00;45.30;;;;;;4940278;28;20155;-78
2022/03/09 00:14:22;;;;;;;116.88;105.60;;;6.90;45.40;;;;;;4972120;28;20164;-78
2022/03/09 00:16:50;;;;;;;118.88;107.53;;;6.90;46.00;;;;;;4939652;28;20059;-78
2022/03/09 00:19:17;;;;;;;115.40;104.30;;;6.90;45.60;;;;;;4939779;28;20126;-78
2022/03/09 00:21:45;;;;;;;116.60;105.50;;;6.80;45.80;;;;;;4956014;28;20455;-78
2022/03/09 00:24:14;;;;;;;115.85;104.55;;;6.80;46.00;;;;;;4939748;28;20055;-78
2022/03/09 00:26:42;;;;;;;116.78;105.53;;;6.80;46.10;;;;;;4971710;28;20436;-78
2022/03/09 00:29:10;;;;;;;117.25;106.05;;;6.80;46.30;;;;;;4955489;28;20059;-78
2022/03/09 00:31:37;;;;;;;117.43;105.80;;;6.80;46.60;;;;;;4939906;28;20482;-79
2022/03/09 00:34:04;;;;;;;115.70;104.40;;;6.70;46.60;;;;;;4923880;28;20158;-78
2022/03/09 00:36:31;;;;;;;117.35;105.80;;;6.70;46.80;;;;;;4939627;28;20056;-78
2022/03/09 00:39:00;;;;;;;117.30;105.43;;;6.70;46.80;;;;;;4955609;28;20135;-78
2022/03/09 00:41:26;;;;;;;116.85;105.47;;;6.70;46.90;;;;;;4939182;28;20101;-78
2022/03/09 00:43:54;;;;;;;117.28;105.78;;;6.70;47.00;;;;;;4971640;28;20071;-78
2022/03/09 00:46:21;;;;;;;115.93;104.63;;;6.70;47.00;;;;;;4939532;28;20052;-78
2022/03/09 00:48:48;;;;;;;116.28;105.07;;;6.70;46.90;;;;;;4939136;28;20056;-78
2022/03/09 00:51:14;;;;;;;115.50;104.30;;;6.70;47.10;;;;;;4938671;28;20054;-79
2022/03/09 00:53:41;;;;;;;116.18;105.07;;;6.70;47.20;;;;;;4939176;28;20051;-78
2022/03/09 00:56:11;;;;;;;116.72;105.47;;;6.60;47.30;;;;;;4954469;28;20074;-78
2022/03/09 00:58:38;;;;;;;117.53;106.22;;;6.60;47.40;;;;;;4938076;28;20055;-78
2022/03/09 01:01:04;;;;;;;116.40;105.10;;;6.70;47.50;;;;;;4938366;28;20092;-78
2022/03/09 01:03:32;;;;;;;116.82;105.57;;;6.60;47.60;;;;;;4971155;28;20569;-78
2022/03/09 01:05:59;;;;;;;119.00;107.50;;;6.60;47.70;;;;;;4938356;28;20051;-78
2022/03/09 01:08:25;;;;;;;119.43;108.07;;;6.50;47.70;;;;;;4937696;28;20139;-79
2022/03/09 01:10:52;;;;;;;118.93;107.63;;;6.50;47.60;;;;;;4937822;28;20127;-78
2022/03/09 01:13:21;;;;;;;116.80;105.60;;;6.50;47.70;;;;;;4939089;28;20134;-78
2022/03/09 01:15:49;;;;;;;116.88;105.57;;;6.50;47.90;;;;;;4938770;28;20059;-78
2022/03/09 01:18:16;;;;;;;118.07;106.35;;;6.50;48.00;;;;;;4937472;28;20154;-78
2022/03/09 01:20:43;;;;;;;119.07;107.68;;;6.40;47.90;;;;;;4953872;28;20052;-79
2022/03/09 01:23:10;;;;;;;118.15;106.85;;;6.40;47.70;;;;;;4938153;28;20051;-78
2022/03/09 01:25:37;;;;;;;117.15;105.72;;;6.40;47.70;;;;;;4937488;28;20420;-78
2022/03/09 01:28:04;;;;;;;118.15;106.78;;;6.30;47.70;;;;;;4937759;28;20099;-78
2022/03/09 01:30:32;;;;;;;122.07;110.25;;;6.30;47.80;;;;;;4937189;28;20044;-78
2022/03/09 01:32:59;;;;;;;118.07;106.78;;;6.30;47.90;;;;;;4935612;28;20142;-78
2022/03/09 01:35:26;;;;;;;119.10;107.60;;;6.20;47.90;;;;;;4954665;28;20078;-78
2022/03/09 01:37:53;;;;;;;119.10;107.70;;;6.20;47.80;;;;;;4938625;28;20143;-78
2022/03/09 01:40:20;;;;;;;116.43;105.03;;;6.10;47.80;;;;;;4938429;28;20047;-78
2022/03/09 01:42:47;;;;;;;116.70;105.38;;;6.10;48.00;;;;;;4938120;28;20055;-78
2022/03/09 01:45:16;;;;;;;116.68;105.38;;;6.10;48.10;;;;;;4956320;28;20055;-78
2022/03/09 01:47:44;;;;;;;117.93;106.53;;;6.00;48.30;;;;;;4938199;28;20056;-78
2022/03/09 01:50:11;;;;;;;116.07;104.65;;;6.00;48.30;;;;;;4954472;28;20058;-78
2022/03/09 01:52:40;;;;;;;115.53;104.03;;;6.00;48.20;;;;;;4955550;28;20055;-78
2022/03/09 01:55:08;;;;;;;116.35;105.07;;;5.90;48.20;;;;;;4940608;28;20555;-79
2022/03/09 02:00:18;;;;;;;116.25;104.90;;;5.90;48.60;;;;;;4937670;28;20087;-80
2022/03/09 02:02:46;;;;;;;117.63;106.13;;;5.80;48.70;;;;;;4953762;28;20063;-77
2022/03/09 02:05:15;;;;;;;115.78;104.28;;;5.80;48.60;;;;;;4938166;28;20055;-77
2022/03/09 02:10:28;;;;;;;115.05;103.68;;;5.80;49.10;;;;;;4938131;28;20054;-77
2022/03/09 02:12:55;;;;;;;116.55;105.07;;;5.70;49.10;;;;;;4970277;28;20489;-78
2022/03/09 02:15:22;;;;;;;115.93;104.40;;;5.70;49.20;;;;;;4937968;28;20056;-78
2022/03/09 02:17:50;;;;;;;115.25;103.97;;;5.70;49.10;;;;;;4937813;28;20541;-77
2022/03/09 02:20:17;;;;;;;114.80;103.25;;;5.60;49.00;;;;;;4937668;28;20055;-77
2022/03/09 02:22:46;;;;;;;114.35;103.15;;;5.50;49.00;;;;;;4955760;28;20059;-77
2022/03/09 02:25:14;;;;;;;116.13;104.72;;;5.50;49.00;;;;;;4941702;28;20060;-77
2022/03/09 02:27:43;;;;;;;116.85;105.47;;;5.50;48.80;;;;;;4941223;28;20051;-77
2022/03/09 02:30:12;;;;;;;115.55;104.25;;;5.40;48.70;;;;;;4957331;28;20067;-78
2022/03/09 02:32:43;;;;;;;116.40;104.90;;;5.40;48.70;;;;;;4941241;28;20710;-77
2022/03/09 02:35:10;;;;;;;116.07;104.70;;;5.40;48.80;;;;;;4941385;28;20055;-77
2022/03/09 02:37:37;;;;;;;116.57;104.97;;;5.30;48.50;;;;;;4941125;28;20127;-77
2022/03/09 02:40:09;;;;;;;117.15;105.65;;;5.30;48.70;;;;;;4941117;28;20047;-77
2022/03/09 02:42:36;;;;;;;117.40;105.75;;;5.30;48.60;;;;;;4973316;28;20076;-77
2022/03/09 02:45:04;;;;;;;116.45;105.03;;;5.20;48.70;;;;;;4957121;28;20056;-77
2022/03/09 02:47:31;;;;;;;116.30;104.88;;;5.20;48.70;;;;;;4956899;28;20052;-78
2022/03/09 02:49:58;;;;;;;116.50;105.00;;;5.20;48.60;;;;;;4941168;28;20723;-78
2022/03/09 02:52:25;;;;;;;115.47;103.97;;;5.20;48.50;;;;;;4941085;28;20171;-77
2022/03/09 02:54:53;;;;;;;116.53;105.13;;;5.10;48.70;;;;;;4972967;28;20163;-77
2022/03/09 02:57:21;;;;;;;115.97;104.35;;;5.10;48.80;;;;;;4940345;28;20536;-77
2022/03/09 02:59:49;;;;;;;117.03;105.32;;;5.10;48.70;;;;;;4940654;28;20123;-77
2022/03/09 03:02:16;;;;;;;117.00;105.18;;;5.10;48.80;;;;;;4956782;28;20520;-77
2022/03/09 03:04:43;;;;;;;116.07;104.40;;;5.10;48.80;;;;;;4941102;28;20160;-78
2022/03/09 03:07:10;;;;;;;118.40;106.38;;;5.10;48.70;;;;;;4956408;28;20529;-78
2022/03/09 03:09:36;;;;;;;117.32;105.55;;;5.10;48.80;;;;;;4940954;28;20052;-77
2022/03/09 03:12:03;;;;;;;;;;;5.00;49.00;;;;;;4941133;28;20056;-77
2022/03/09 03:14:32;;;;;;;118.50;106.43;;;5.00;49.30;;;;;;4958371;28;19958;-77
2022/03/09 03:16:58;;;;;;;118.20;106.30;;;5.00;49.20;;;;;;4940537;28;20135;-77
2022/03/09 03:19:25;;;;;;;;;;;5.00;49.20;;;;;;4940797;28;20055;-77
2022/03/09 03:21:52;;;;;;;116.13;104.30;;;5.00;49.40;;;;;;4957115;28;19926;-77
2022/03/09 03:24:19;;;;;;;;;;;5.00;49.20;;;;;;4941416;28;20059;-77
2022/03/09 03:26:46;;;;;;;117.60;105.60;;;5.00;49.40;;;;;;4957041;28;19934;-77
2022/03/09 03:29:12;;;;;;;;;;;4.90;49.30;;;;;;4957197;28;20054;-77
2022/03/09 03:31:41;;;;;;;114.35;102.65;;;4.90;49.70;;;;;;4940616;28;19926;-77
2022/03/09 03:34:07;;;;;;;118.53;106.72;;;4.90;49.60;;;;;;4940797;28;20079;-77
2022/03/09 03:36:34;;;;;;;116.03;104.28;;;4.90;49.70;;;;;;4940949;28;20074;-77
2022/03/09 03:39:01;;;;;;;116.65;104.70;;;4.90;49.70;;;;;;4940265;28;20052;-77
2022/03/09 03:41:28;;;;;;;117.70;105.68;;;4.90;49.70;;;;;;4940500;28;20075;-77
2022/03/09 03:43:55;;;;;;;117.38;105.43;;;4.90;49.70;;;;;;4940067;28;20071;-77
2022/03/09 03:46:22;;;;;;;116.90;104.80;;;4.90;49.60;;;;;;4940295;28;20058;-77
2022/03/09 03:48:50;;;;;;;116.65;104.85;;;4.90;49.70;;;;;;4940421;28;20048;-77
2022/03/09 03:51:17;;;;;;;116.13;104.50;;;4.80;49.50;;;;;;4956127;28;20059;-78
2022/03/09 03:53:44;;;;;;;117.60;105.70;;;4.80;49.60;;;;;;4940424;28;20047;-77
2022/03/09 03:56:11;;;;;;;117.50;105.70;;;4.80;49.60;;;;;;4940121;28;20083;-77
2022/03/09 03:58:38;;;;;;;117.95;106.05;;;4.80;49.60;;;;;;4957068;28;20589;-77
2022/03/09 04:01:05;;;;;;;116.13;104.43;;;4.80;49.70;;;;;;4940326;28;20478;-77
2022/03/09 04:03:32;;;;;;;116.50;104.68;;;4.80;49.80;;;;;;4940320;28;20059;-77
2022/03/09 04:06:02;;;;;;;118.32;106.43;;;4.80;49.80;;;;;;4956427;28;20110;-77
2022/03/09 04:08:29;;;;;;;115.85;104.25;;;4.80;50.00;;;;;;4939663;28;20052;-77
2022/03/09 04:10:55;;;;;;;116.47;104.70;;;4.70;49.80;;;;;;4956038;28;20071;-77
2022/03/09 04:13:22;;;;;;;114.35;103.03;;;4.70;50.00;;;;;;4940067;28;20143;-77
2022/03/09 04:15:49;;;;;;;;;;;4.60;49.90;;;;;;4940440;28;20130;-77
2022/03/09 04:18:16;;;;;;;115.05;103.10;;;4.60;50.10;;;;;;4940013;28;19982;-77
2022/03/09 04:20:43;;;;;;;;;;;4.60;50.00;;;;;;4940452;28;20059;-77
2022/03/09 04:23:12;;;;;;;114.72;102.75;;;4.60;50.20;;;;;;4956275;28;19927;-77
2022/03/09 04:25:39;;;;;;;114.38;102.68;;;4.50;49.90;;;;;;4955921;28;20047;-77
2022/03/09 04:28:08;;;;;;;116.80;105.10;;;4.50;50.00;;;;;;4939645;28;20062;-77
2022/03/09 04:30:35;;;;;;;115.45;103.53;;;4.50;50.10;;;;;;4939949;28;20055;-77
2022/03/09 04:33:01;;;;;;;;;;;4.60;50.20;;;;;;4940116;28;20134;-77
2022/03/09 04:35:28;;;;;;;;;;;4.60;50.30;;;;;;4941450;28;19969;-77
2022/03/09 04:37:55;;;;;;;;;;;4.50;50.20;;;;;;4959820;28;19930;-77
2022/03/09 04:40:23;;;;;;;;;;;4.50;50.10;;;;;;4956449;28;19929;-77
2022/03/09 04:42:50;;;;;;;116.53;104.38;;;4.50;50.30;;;;;;4940273;28;19926;-77
2022/03/09 04:45:17;;;;;;;115.65;103.75;;;4.50;50.00;;;;;;4938726;28;20518;-77
2022/03/09 04:47:44;;;;;;;116.03;104.28;;;4.50;50.10;;;;;;4955318;28;20062;-77
2022/03/09 04:50:11;;;;;;;115.85;104.13;;;4.50;50.20;;;;;;4955510;28;20139;-76
2022/03/09 04:52:38;;;;;;;;;;;4.50;50.20;;;;;;4940100;28;20059;-77
2022/03/09 04:55:05;;;;;;;;;;;4.40;50.20;;;;;;4940380;28;20039;-77
2022/03/09 04:57:37;;;;;;;118.30;106.30;;;4.40;50.50;;;;;;4955190;28;19931;-77
2022/03/09 05:00:04;;;;;;;117.40;105.47;;;4.40;50.20;;;;;;4955547;28;20054;-77
2022/03/09 05:02:31;;;;;;;116.47;104.57;;;4.40;50.30;;;;;;4939473;28;20508;-77
2022/03/09 05:04:58;;;;;;;;;;;4.40;50.30;;;;;;4939756;28;20091;-77
2022/03/09 05:07:25;;;;;;;115.32;103.13;;;4.40;50.40;;;;;;4955341;28;19931;-77
2022/03/09 05:09:51;;;;;;;;;;;4.30;50.20;;;;;;4939419;28;20498;-77
2022/03/09 05:12:18;;;;;;;;;;;4.30;50.50;;;;;;4956051;28;19981;-77
2022/03/09 05:14:46;;;;;;;116.30;104.30;;;4.30;50.50;;;;;;4955748;28;19926;-77
2022/03/09 05:17:13;;;;;;;117.13;104.97;;;4.30;50.50;;;;;;4938817;28;20083;-77
2022/03/09 05:19:40;;;;;;;117.05;104.93;;;4.30;50.60;;;;;;4938810;28;20056;-77
2022/03/09 05:22:07;;;;;;;116.20;104.30;;;4.30;50.70;;;;;;4938939;28;20532;-77
2022/03/09 05:24:35;;;;;;;117.43;105.30;;;4.20;50.60;;;;;;4971033;28;20565;-77
2022/03/09 05:27:02;;;;;;;115.22;103.43;;;4.20;50.70;;;;;;4938383;28;20044;-77
2022/03/09 05:29:29;;;;;;;116.00;103.90;;;4.20;50.50;;;;;;4970844;28;20063;-77
2022/03/09 05:31:57;;;;;;;116.50;104.40;;;4.20;50.60;;;;;;4939356;28;20079;-77
2022/03/09 05:34:24;;;;;;;115.93;104.00;;;4.10;50.70;;;;;;4955627;28;20491;-77
2022/03/09 05:36:51;;;;;;;;;;;4.10;50.70;;;;;;4939270;28;20060;-77
2022/03/09 05:39:18;;;;;;;115.13;103.10;;;4.10;50.90;;;;;;4938699;28;19926;-77
2022/03/09 05:41:47;;;;;;;115.82;103.93;;;4.10;50.70;;;;;;4938581;28;20047;-77
2022/03/09 05:44:14;;;;;;;119.03;106.82;;;4.00;50.60;;;;;;4956099;28;20500;-77
2022/03/09 05:46:41;;;;;;;;;;;4.00;50.90;;;;;;4938820;28;20589;-77
2022/03/09 05:49:09;;;;;;;120.13;107.72;;;4.00;51.10;;;;;;4954549;28;20029;-77
2022/03/09 05:51:37;;;;;;;138.07;104.10;;;4.00;50.90;;;;;;4954404;28;20062;-77
2022/03/09 05:54:04;;;;;;;116.50;103.85;;;4.00;51.10;;;;;;4938564;28;20082;-77
2022/03/09 05:56:31;;;;;;;114.70;102.75;;;4.00;51.20;;;;;;4954858;28;20047;-77
2022/03/09 05:59:04;;;;;;;115.32;103.47;;;4.00;51.30;;;;;;4956730;28;20526;-77
2022/03/09 06:01:31;;;;;;;116.65;104.80;;;4.00;51.20;;;;;;4938207;28;20054;-77
2022/03/09 06:03:58;;;;;;;116.10;104.10;;;4.00;51.20;;;;;;4955833;28;20056;-77
2022/03/09 06:06:26;;;;;;;115.28;103.47;;;4.00;51.30;;;;;;4939152;28;20054;-76
2022/03/09 06:08:53;;;;;;;115.80;103.93;;;4.00;51.20;;;;;;4939082;28;20066;-77
2022/03/09 06:11:20;;;;;;;116.68;104.57;;;3.90;51.20;;;;;;4938375;28;20083;-77
2022/03/09 06:13:47;;;;;;;116.15;104.35;;;4.00;51.20;;;;;;4938339;28;20055;-77
2022/03/09 06:16:14;;;;;;;114.97;102.95;;;3.90;51.20;;;;;;4938044;28;20040;-77
2022/03/09 06:18:41;;;;;;;115.82;104.07;;;3.90;51.30;;;;;;4937880;28;20062;-77
2022/03/09 06:21:08;;;;;;;116.05;103.95;;;3.90;51.30;;;;;;4938059;28;20070;-76
2022/03/09 06:23:36;;;;;;;117.72;105.57;;;3.90;51.40;;;;;;4937975;28;20513;-77
2022/03/09 06:26:03;;;;;;;115.78;103.90;;;3.90;51.60;;;;;;4954041;28;20054;-77
2022/03/09 06:28:30;;;;;;;114.85;103.07;;;3.90;51.70;;;;;;4938014;28;20068;-77
2022/03/09 06:30:56;;;;;;;;;;;3.90;51.70;;;;;;4954569;28;20056;-77
2022/03/09 06:33:23;;;;;;;117.93;105.38;;;3.90;51.70;;;;;;4954541;28;19926;-77
2022/03/09 06:35:50;;;;;;;116.00;104.20;;;3.90;51.60;;;;;;4937110;28;20051;-78
2022/03/09 06:38:18;;;;;;;119.15;106.90;;;3.90;51.60;;;;;;4937196;28;20521;-76
2022/03/09 06:40:47;;;;;;;120.05;107.70;;;3.80;51.60;;;;;;4955251;28;20517;-77
2022/03/09 06:43:14;;;;;;;118.20;105.88;;;3.80;51.70;;;;;;4937645;28;20060;-77
2022/03/09 06:45:41;;;;;;;;;;;3.80;51.80;;;;;;4938203;28;20055;-76
2022/03/09 06:48:08;;;;;;;116.22;103.93;;;3.80;51.80;;;;;;4937266;28;19933;-79
2022/03/09 06:50:36;;;;;;;115.18;103.28;;;3.70;51.80;;;;;;4895304;28;20052;-79
2022/03/09 06:53:05;;;;;;;115.03;103.10;;;3.70;51.90;;;;;;4948439;28;20131;-78
2022/03/09 06:55:32;;;;;;;116.30;104.50;;;3.70;52.20;;;;;;4955067;28;20528;-78
2022/03/09 06:58:00;;;;;;;117.45;105.30;;;3.70;52.30;;;;;;4969533;28;20174;-79
2022/03/09 07:00:27;;;;;;;117.65;105.65;;;3.70;52.60;;;;;;4952042;28;20062;-79
2022/03/09 07:02:56;;;;;;;;;;;3.70;52.60;;;;;;4937660;28;20064;-79
2022/03/09 07:05:23;;;;;;;117.72;104.95;;;3.70;52.70;;;;;;4936783;28;19934;-79
2022/03/09 07:07:50;;;;;;;121.38;105.25;;;3.70;52.80;;;;;;4953079;28;20055;-79
2022/03/09 07:10:18;;;;;;;117.28;105.20;;;3.70;53.00;;;;;;4956295;28;20098;-79
2022/03/09 07:12:47;;;;;;;116.35;104.10;;;3.70;53.20;;;;;;4943506;28;20048;-78
2022/03/09 07:15:16;;;;;;;114.75;102.78;;;3.70;53.30;;;;;;4954000;28;20051;-78
2022/03/09 07:17:44;;;;;;;116.78;104.88;;;3.60;53.50;;;;;;4956530;28;20106;-79
2022/03/09 07:20:12;;;;;;;118.32;106.00;;;3.70;53.70;;;;;;4957970;28;20058;-79
2022/03/09 07:22:39;;;;;;;120.00;107.90;;;3.70;54.00;;;;;;4957862;28;20143;-79
2022/03/09 07:25:07;;;;;;;;;;;3.70;54.00;;;;;;4957170;28;20124;-79
2022/03/09 07:27:33;;;;;;;118.03;105.78;;;3.70;54.20;;;;;;4956648;28;20411;-80
2022/03/09 07:30:01;;;;;;;;;;;3.70;54.50;;;;;;4973096;28;20099;-78
2022/03/09 07:32:29;;;;;;;119.72;107.18;;;3.70;54.90;;;;;;4956803;28;19927;-79
2022/03/09 07:34:56;;;;;;;120.85;108.45;;;3.80;54.60;;;;;;4941661;28;20524;-80
2022/03/09 07:37:23;;;;;;;119.40;106.82;;;3.80;55.00;;;;;;4957016;28;20159;-80
2022/03/09 07:39:50;;;;;;;118.57;106.32;;;3.80;55.40;;;;;;4945472;28;20510;-80
2022/03/09 07:42:17;;;;;;;116.35;104.35;;;3.80;55.50;;;;;;4957611;28;20055;-80
2022/03/09 07:44:43;;;;;;;116.55;104.13;;;3.90;55.90;;;;;;4940212;28;20040;-79
2022/03/09 07:47:10;;;;;;;116.15;103.85;;;3.90;56.00;;;;;;4956312;28;20051;-78
2022/03/09 07:49:39;;;;;;;116.57;104.43;;;3.90;56.10;;;;;;4940273;28;20098;-78
2022/03/09 07:52:06;;;;;;;118.00;105.28;;;3.90;56.50;;;;;;4940268;28;20060;-79
2022/03/09 07:54:33;;;;;;;114.70;102.57;;;3.90;56.30;;;;;;4940267;28;20040;-80
2022/03/09 07:57:01;;;;;;;117.40;105.30;;;4.00;56.20;;;;;;4955974;28;20135;-79
2022/03/09 07:59:29;;;;;;;119.57;106.55;;;4.00;56.00;;;;;;4956937;28;20132;-78
2022/03/09 08:02:07;;;;;;;;;;;4.00;55.60;;;;;;4925236;28;20153;-78
2022/03/09 08:04:35;;;;;;;118.85;106.40;;;4.00;56.20;;;;;;4938690;28;19938;-80
2022/03/09 08:07:04;;;;;;;118.13;105.70;;;4.00;55.80;;;;;;4938712;28;20083;-79
2022/03/09 08:09:31;;;;;;;116.55;104.45;;;4.00;56.00;;;;;;4938668;28;20052;-79
2022/03/09 08:11:58;;;;;;;117.95;105.95;;;4.10;56.40;;;;;;4939324;28;20059;-79
2022/03/09 08:14:24;;;;;;;116.03;103.95;;;4.10;56.00;;;;;;4955287;28;20131;-78
2022/03/09 08:16:51;;;;;;;;;;;4.10;55.90;;;;;;4955152;28;20107;-75
2022/03/09 08:19:18;;;;;;;;;;;4.10;56.90;;;;;;4940870;28;19926;-78
2022/03/09 08:21:45;;;;;;;117.40;105.00;;;4.20;58.20;;;;;;4939371;28;20028;-74
2022/03/09 08:24:13;;;;;;;114.65;102.65;;;4.20;56.50;;;;;;4938243;28;20054;-78
2022/03/09 08:26:40;;;;;;;115.20;103.50;;;4.30;56.40;;;;;;4941938;28;20062;-79
2022/03/09 08:29:07;;;;;;;124.60;105.63;;;4.30;56.90;;;;;;4953923;28;20184;-78
2022/03/09 08:31:34;;;;;;;115.45;103.55;;;4.40;56.50;;;;;;4955547;28;20056;-78
2022/03/09 08:34:01;;;;;;;116.35;104.45;;;4.50;56.50;;;;;;4954875;28;20054;-79
2022/03/09 08:36:28;;;;;;;114.38;102.68;;;4.50;56.10;;;;;;4955383;28;20131;-77
2022/03/09 08:38:55;;;;;;;115.97;104.28;;;4.60;56.10;;;;;;4955362;28;20047;-77
2022/03/09 08:41:25;;;;;;;115.72;103.63;;;4.70;55.60;;;;;;4957111;28;20955;-79
2022/03/09 08:43:52;;;;;;;116.00;103.80;;;4.70;55.50;;;;;;4939142;28;20052;-79
2022/03/09 08:46:19;;;;;;;117.22;105.28;;;4.80;55.20;;;;;;4939037;28;20127;-79
2022/03/09 08:48:46;;;;;;;115.82;103.90;;;4.90;55.30;;;;;;4954425;28;20550;-78
2022/03/09 08:51:13;;;;;;;115.93;104.13;;;5.00;54.60;;;;;;4939371;28;20062;-81
2022/03/09 08:53:41;;;;;;;115.43;103.43;;;5.10;53.50;;;;;;4939275;28;20050;-81
2022/03/09 08:56:08;;;;;;;115.72;104.05;;;5.20;53.00;;;;;;4954957;28;20773;-79
2022/03/09 08:58:38;;;;;;;117.28;105.38;;;5.30;53.00;;;;;;4938911;28;20055;-79
2022/03/09 09:01:05;;;;;;;119.28;107.18;;;5.40;53.20;;;;;;4945459;28;20056;-78
2022/03/09 09:03:33;;;;;;;117.25;105.28;;;5.50;52.60;;;;;;4970378;28;20760;-76
2022/03/09 09:06:00;;;;;;;117.30;105.45;;;5.60;52.70;;;;;;4939417;28;20061;-76
2022/03/09 09:08:27;;;;;;;117.47;105.75;;;5.70;52.50;;;;;;4938789;28;20063;-77
2022/03/09 09:10:54;;;;;;;117.03;104.82;;;5.80;52.20;;;;;;4939076;28;20082;-77
2022/03/09 09:13:21;;;;;;;117.75;105.93;;;5.90;51.70;;;;;;4971129;28;20043;-77
2022/03/09 09:15:50;;;;;;;117.30;105.32;;;6.00;51.80;;;;;;4938984;28;20059;-80
2022/03/09 09:18:17;;;;;;;122.00;108.47;;;6.10;51.40;;;;;;4938667;28;20062;-80
2022/03/09 09:20:44;;;;;;;120.07;107.38;;;6.20;51.40;;;;;;4955014;28;20134;-79
2022/03/09 09:23:11;;;;;;;;;;;6.30;51.60;;;;;;4955273;28;20542;-81
2022/03/09 09:25:38;;;;;;;115.20;103.28;;;6.30;51.10;;;;;;4955094;28;19926;-81
2022/03/09 09:28:06;;;;;;;115.72;103.18;;;6.50;51.40;;;;;;4954881;28;20063;-79
2022/03/09 09:30:34;;;;;;;117.47;105.60;;;6.50;50.60;;;;;;4954697;28;20605;-79
2022/03/09 09:33:04;;;;;;;117.70;105.43;;;6.60;50.80;;;;;;4954365;28;20063;-74
2022/03/09 09:35:31;;;;;;;117.18;105.45;;;6.70;49.90;;;;;;4955717;28;20171;-77
2022/03/09 09:38:06;;;;;;;121.35;108.10;;;6.80;49.90;;;;;;4953641;28;20119;-76
2022/03/09 09:40:34;;;;;;;116.25;104.45;;;6.90;50.10;;;;;;4954589;28;20135;-76
2022/03/09 09:43:07;;;;;;;118.35;106.32;;;7.00;50.10;;;;;;4970219;28;20043;-79
2022/03/09 09:45:35;;;;;;;118.60;106.57;;;7.10;49.30;;;;;;4958925;28;20056;-80
2022/03/09 09:48:04;;;;;;;120.65;107.70;;;7.20;49.00;;;;;;4938244;28;20058;-76
2022/03/09 09:50:32;;;;;;;118.03;106.53;;;7.30;49.50;;;;;;4954312;28;20536;-77
2022/03/09 09:52:59;;;;;;;121.22;107.63;;;7.30;49.10;;;;;;4954624;28;20147;-76
2022/03/09 09:55:27;;;;;;;117.05;105.43;;;7.40;48.80;;;;;;4955647;28;20134;-75
2022/03/09 09:57:56;;;;;;;117.75;106.05;;;7.50;49.10;;;;;;4953914;28;20501;-76
2022/03/09 10:00:23;;;;;;;117.95;106.18;;;7.60;48.60;;;;;;4954547;28;20110;-77
2022/03/09 10:02:50;;;;;;;119.40;107.90;;;7.70;48.80;;;;;;4938235;28;20052;-77
2022/03/09 10:05:19;;;;;;;117.95;106.45;;;7.70;48.10;;;;;;4955741;28;20190;-79
2022/03/09 10:08:10;;;;;;;120.95;108.82;;;7.80;48.70;;;;;;4954366;28;20059;-76
2022/03/09 10:10:41;;;;;;;117.65;106.25;;;7.90;48.60;;;;;;4938160;28;20060;-75
2022/03/09 10:13:13;;;;;;;117.97;106.38;;;8.00;48.20;;;;;;4955488;28;20052;-80
2022/03/09 10:15:41;;;;;;;119.80;107.57;;;8.10;48.40;;;;;;4938196;28;20052;-77
2022/03/09 10:18:16;;;;;;;119.70;107.60;;;8.20;48.80;;;;;;4938242;28;20505;-78
2022/03/09 10:20:45;;;;;;;118.07;106.47;;;8.30;48.70;;;;;;4938194;28;20569;-79
2022/03/09 10:23:12;;;;;;;117.15;105.60;;;8.40;47.70;;;;;;4948766;28;20058;-78
2022/03/09 10:25:40;;;;;;;116.40;104.95;;;8.50;47.50;;;;;;4937145;28;20052;-78
2022/03/09 10:28:08;;;;;;;118.32;106.82;;;8.50;46.80;;;;;;4937225;28;20059;-78
2022/03/09 10:30:37;;;;;;;118.20;106.57;;;8.60;46.90;;;;;;4953047;28;20063;-78
2022/03/09 10:33:06;;;;;;;117.47;105.78;;;8.70;47.00;;;;;;4937794;28;20106;-80
2022/03/09 10:35:42;;;;;;;114.57;103.25;;;8.80;46.40;;;;;;4937006;28;20134;-78
2022/03/09 10:38:22;;;;;;;;;;;8.90;46.40;;;;;;4943987;28;20052;-78
2022/03/09 10:40:52;;;;;;;117.45;105.88;;;9.00;46.50;;;;;;4937617;28;19926;-77
2022/03/09 10:43:21;;;;;;;116.10;104.57;;;9.10;45.90;;;;;;4936807;29;20048;-77
2022/03/09 10:46:03;;;;;;;114.85;103.45;;;9.20;46.60;;;;;;4963877;28;20064;-77
2022/03/09 10:48:54;;;;;;;115.95;104.38;;;9.30;45.80;;;;;;4954499;28;20055;-77
2022/03/09 10:51:33;;;;;;;115.65;104.35;;;9.40;46.10;;;;;;4921948;29;20131;-77
2022/03/09 10:54:03;;;;;;;116.60;105.40;;;9.40;45.80;;;;;;4921941;29;20437;-76
2022/03/09 10:56:31;;;;;;;116.57;105.03;;;9.50;46.30;;;;;;4926968;28;20062;-77
2022/03/09 10:59:10;;;;;;;121.55;109.93;;;9.60;46.50;;;;;;4956971;28;20047;-77
2022/03/09 11:01:37;;;;;;;120.22;108.78;;;9.80;45.60;;;;;;4946787;28;20075;-77
2022/03/09 11:04:12;;;;;;;118.78;107.38;;;9.90;45.40;;;;;;4957268;28;20490;-77
2022/03/09 11:06:42;;;;;;;115.72;104.43;;;10.00;45.50;;;;;;4941923;28;20160;-76
2022/03/09 11:09:12;;;;;;;116.85;105.75;;;10.10;45.90;;;;;;4952793;28;20056;-77
2022/03/09 11:11:40;;;;;;;116.55;105.30;;;10.20;45.10;;;;;;4967311;28;20146;-76
2022/03/09 11:14:08;;;;;;;117.07;105.75;;;10.30;45.90;;;;;;4956767;28;20054;-76
2022/03/09 11:16:36;;;;;;;116.53;105.43;;;10.50;46.20;;;;;;4941068;28;20055;-77
2022/03/09 11:19:03;;;;;;;118.53;107.25;;;10.60;45.70;;;;;;4940210;28;20047;-76
2022/03/09 11:21:30;;;;;;;118.10;106.60;;;10.70;46.20;;;;;;4954681;28;20593;-79
2022/03/09 11:23:58;;;;;;;119.25;107.85;;;10.80;45.70;;;;;;4972667;28;20110;-74
2022/03/09 11:26:29;;;;;;;119.03;107.72;;;10.90;45.00;;;;;;4954447;28;20056;-80
2022/03/09 11:29:04;;;;;;;117.03;105.85;;;11.00;44.80;;;;;;4971895;28;20131;-79
2022/03/09 11:31:47;;;;;;;116.32;105.13;;;11.10;44.80;;;;;;4971994;28;20054;-75
2022/03/09 11:34:37;;;;;;;116.72;105.72;;;11.30;44.50;;;;;;4931917;28;20054;-78
2022/03/09 11:37:12;;;;;;;115.18;104.22;;;11.30;43.90;;;;;;4944127;28;20574;-77
2022/03/09 11:39:40;;;;;;;118.07;106.40;;;11.50;43.60;;;;;;4940582;28;20059;-76
2022/03/09 11:42:31;;;;;;;118.00;106.80;;;11.50;44.10;;;;;;4956559;28;20076;-77
2022/03/09 11:45:38;;;;;;;117.90;106.80;;;11.60;45.30;;;;;;4959484;28;20051;-77
2022/03/09 11:48:09;;;;;;;119.00;107.95;;;11.80;45.60;;;;;;4948322;28;20118;-77
2022/03/09 11:51:09;;;;;;;118.72;107.45;;;11.90;45.80;;;;;;4956639;28;20055;-80
2022/03/09 11:53:39;;;;;;;117.80;106.63;;;12.00;45.70;;;;;;4958027;28;20111;-77
2022/03/09 11:56:27;;;;;;;119.45;108.25;;;12.10;45.80;;;;;;4961063;28;20058;-82
2022/03/09 11:59:20;;;;;;;118.43;107.32;;;12.20;45.80;;;;;;4959823;28;20110;-80
2022/03/09 12:02:13;;;;;;;119.22;108.13;;;12.40;45.70;;;;;;4917712;28;20146;-80
2022/03/09 12:04:48;;;;;;;118.72;107.63;;;12.50;46.40;;;;;;4944462;28;20060;-80
2022/03/09 12:07:46;;;;;;;147.30;111.75;;;12.60;46.50;;;;;;4939496;28;20044;-81
2022/03/09 12:10:14;;;;;;;121.88;108.05;;;12.70;46.20;;;;;;4937929;29;20052;-80
2022/03/09 12:13:15;;;;;;;117.20;106.03;;;12.80;45.90;;;;;;4937059;29;20056;-79
2022/03/09 12:16:16;;;;;;;120.75;109.38;;;12.90;45.50;;;;;;4921176;28;20051;-80
2022/03/09 12:18:50;;;;;;;122.35;109.85;;;13.10;45.30;;;;;;4955642;28;20102;-80
2022/03/09 12:21:20;;;;;;;119.22;108.28;;;13.10;44.30;;;;;;4972110;28;20055;-80
2022/03/09 12:24:28;;;;;;;121.18;110.07;;;13.20;45.40;;;;;;4942632;28;20050;-80
2022/03/09 12:26:57;;;;;;;121.70;109.60;;;13.30;44.80;;;;;;4939474;28;20565;-82
2022/03/09 12:29:40;;;;;;;119.75;108.80;;;13.40;44.30;;;;;;4944865;28;20547;-80
2022/03/09 12:32:13;;;;;;;120.70;109.63;;;13.50;44.50;;;;;;4954922;28;20126;-80
2022/03/09 12:34:42;;;;;;;123.82;112.13;;;13.50;44.90;;;;;;4939415;28;20083;-77
2022/03/09 12:37:12;;;;;;;122.85;111.50;;;13.70;45.00;;;;;;4947647;28;20058;-78
2022/03/09 12:39:40;;;;;;;120.78;109.50;;;13.70;43.10;;;;;;4956512;28;20048;-78
2022/03/09 12:42:08;;;;;;;120.95;109.82;;;13.90;42.90;;;;;;4943982;28;20058;-77